createdAt,value
2023-02-11T00:01:44.065Z,3.85
2023-02-11T00:04:12.285Z,4.09
2023-02-11T00:06:40.835Z,4.18
2023-02-11T00:09:08.633Z,4.11
2023-02-11T00:11:37.116Z,3.94
2023-02-11T00:14:08.113Z,4.03
2023-02-11T00:16:36.685Z,4.04
2023-02-11T00:19:06.668Z,3.82
2023-02-11T00:21:35.488Z,3.77
2023-02-11T00:24:03.746Z,3.54
2023-02-11T00:26:34.830Z,3.51
2023-02-11T00:29:04.345Z,3.72
2023-02-11T00:31:33.489Z,3.68
2023-02-11T00:34:01.521Z,3.71
2023-02-11T00:36:30.551Z,3.38
2023-02-11T00:38:59.657Z,3.36
2023-02-11T00:41:29.746Z,3.27
2023-02-11T00:44:00.860Z,3.30
2023-02-11T00:46:29.943Z,3.40
2023-02-11T00:48:58.173Z,3.28
2023-02-11T00:51:27.465Z,3.28
2023-02-11T00:53:55.434Z,3.18
2023-02-11T00:56:24.727Z,3.20
2023-02-11T00:58:53.666Z,3.44
2023-02-11T01:01:21.873Z,3.36
2023-02-11T01:03:50.029Z,3.29
2023-02-11T01:06:19.264Z,3.31
2023-02-11T01:08:47.282Z,3.39
2023-02-11T01:11:21.329Z,3.39
2023-02-11T01:13:50.330Z,3.28
2023-02-11T01:16:19.536Z,3.31
2023-02-11T01:18:47.590Z,3.39
2023-02-11T01:21:18.729Z,3.39
2023-02-11T01:23:46.811Z,3.25
2023-02-11T01:26:14.946Z,3.33
2023-02-11T01:28:42.976Z,3.13
2023-02-11T01:31:11.517Z,3.13
2023-02-11T01:33:39.372Z,3.01
2023-02-11T01:36:08.177Z,2.83
2023-02-11T01:38:36.892Z,3.03
2023-02-11T01:41:09.323Z,2.90
2023-02-11T01:43:43.572Z,3.00
2023-02-11T01:46:36.318Z,3.09
2023-02-11T01:49:12.824Z,2.89
2023-02-11T01:51:44.260Z,2.86
2023-02-11T01:54:35.713Z,2.63
2023-02-11T01:57:25.446Z,2.58
2023-02-11T02:00:12.816Z,2.78
2023-02-11T02:02:51.307Z,2.98
2023-02-11T02:05:25.309Z,3.26
2023-02-11T02:08:16.668Z,2.87
2023-02-11T02:10:47.689Z,3.09
2023-02-11T02:13:17.964Z,3.17
2023-02-11T02:16:03.729Z,3.03
2023-02-11T02:18:51.531Z,3.00
2023-02-11T02:21:59.591Z,2.75
2023-02-11T02:24:52.016Z,2.52
2023-02-11T02:27:42.330Z,2.62
2023-02-11T02:30:20.902Z,2.70
2023-02-11T02:33:22.350Z,2.67
2023-02-11T02:36:04.474Z,2.79
2023-02-11T02:38:54.959Z,3.02
2023-02-11T02:41:32.851Z,2.88
2023-02-11T02:44:01.033Z,2.86
2023-02-11T02:46:33.009Z,3.04
2023-02-11T02:49:02.037Z,2.79
2023-02-11T02:51:51.976Z,2.86
2023-02-11T02:54:36.155Z,2.90
2023-02-11T02:57:07.274Z,2.94
2023-02-11T03:00:13.547Z,2.98
2023-02-11T03:03:02.862Z,2.90
2023-02-11T03:05:58.762Z,2.86
2023-02-11T03:09:05.807Z,2.75
2023-02-11T03:11:36.094Z,3.00
2023-02-11T03:14:08.386Z,2.99
2023-02-11T03:16:39.578Z,3.02
2023-02-11T03:19:21.205Z,3.17
2023-02-11T03:21:52.097Z,3.07
2023-02-11T03:24:33.481Z,3.11
2023-02-11T03:27:09.691Z,3.13
2023-02-11T03:29:45.036Z,3.23
2023-02-11T03:32:17.270Z,3.01
2023-02-11T03:34:48.125Z,3.45
2023-02-11T03:37:45.742Z,3.38
2023-02-11T03:40:19.436Z,3.18
2023-02-11T03:43:01.321Z,3.46
2023-02-11T03:45:30.796Z,3.61
2023-02-11T03:48:04.317Z,3.72
2023-02-11T03:50:35.547Z,3.51
2023-02-11T03:53:05.160Z,3.23
2023-02-11T03:55:38.155Z,3.50
2023-02-11T03:58:07.292Z,3.40
2023-02-11T04:00:39.967Z,3.17
2023-02-11T04:03:09.398Z,3.24
2023-02-11T04:05:38.525Z,3.17
2023-02-11T04:08:06.929Z,3.52
2023-02-11T04:10:35.404Z,3.58
2023-02-11T04:13:03.596Z,3.73
2023-02-11T04:15:31.770Z,3.75
2023-02-11T04:17:59.510Z,3.88
2023-02-11T04:20:28.000Z,3.72
2023-02-11T04:22:55.831Z,3.79
2023-02-11T04:25:24.172Z,3.67
2023-02-11T04:27:53.027Z,3.55
2023-02-11T04:30:21.309Z,3.39
2023-02-11T04:32:49.141Z,3.65
2023-02-11T04:35:17.387Z,3.45
2023-02-11T04:37:45.611Z,3.37
2023-02-11T04:40:13.876Z,3.35
2023-02-11T04:42:41.754Z,3.11
2023-02-11T04:45:11.293Z,2.83
2023-02-11T04:47:39.115Z,3.28
2023-02-11T04:50:07.306Z,3.29
2023-02-11T04:52:35.117Z,3.51
2023-02-11T04:55:03.328Z,3.43
2023-02-11T04:57:31.112Z,3.48
2023-02-11T04:59:59.334Z,3.55
2023-02-11T05:02:27.228Z,3.82
2023-02-11T05:04:55.352Z,3.47
2023-02-11T05:07:23.553Z,3.54
2023-02-11T05:09:51.640Z,3.74
2023-02-11T05:12:19.629Z,3.79
2023-02-11T05:14:47.949Z,3.97
2023-02-11T05:17:15.845Z,4.02
2023-02-11T05:19:44.019Z,3.92
2023-02-11T05:22:12.487Z,3.90
2023-02-11T05:24:40.601Z,3.98
2023-02-11T05:27:08.336Z,3.86
2023-02-11T05:29:36.611Z,3.47
2023-02-11T05:32:04.559Z,3.53
2023-02-11T05:34:32.832Z,3.53
2023-02-11T05:37:01.247Z,3.70
2023-02-11T05:39:29.463Z,3.70
2023-02-11T05:41:57.370Z,3.64
2023-02-11T05:44:25.651Z,3.41
2023-02-11T05:46:53.423Z,3.78
2023-02-11T05:49:21.747Z,3.76
2023-02-11T05:51:49.946Z,3.82
2023-02-11T05:54:18.186Z,3.90
2023-02-11T05:56:45.998Z,3.68
2023-02-11T05:59:15.841Z,3.70
2023-02-11T06:01:43.960Z,4.03
2023-02-11T06:04:12.120Z,3.83
2023-02-11T06:06:39.921Z,3.93
2023-02-11T06:09:08.114Z,4.05
2023-02-11T06:11:35.841Z,3.91
2023-02-11T06:14:04.476Z,3.74
2023-02-11T06:16:32.524Z,4.00
2023-02-11T06:19:01.052Z,3.98
2023-02-11T06:21:43.005Z,3.85
2023-02-11T06:24:12.758Z,4.04
2023-02-11T06:26:40.829Z,4.05
2023-02-11T06:29:09.358Z,3.83
2023-02-11T06:31:39.383Z,3.95
2023-02-11T06:34:09.751Z,3.92
2023-02-11T06:36:40.744Z,4.04
2023-02-11T06:39:08.940Z,4.22
2023-02-11T06:41:36.936Z,4.28
2023-02-11T06:44:05.264Z,4.24
2023-02-11T06:46:33.057Z,4.00
2023-02-11T06:49:01.410Z,4.17
2023-02-11T06:51:29.327Z,4.13
2023-02-11T06:53:57.446Z,4.33
2023-02-11T06:56:27.858Z,4.46
2023-02-11T06:58:56.675Z,4.71
2023-02-11T07:01:26.169Z,4.55
2023-02-11T07:03:55.241Z,4.64
2023-02-11T07:06:28.080Z,4.84
2023-02-11T07:08:56.649Z,4.60
2023-02-11T07:11:27.310Z,4.87
2023-02-11T07:14:00.603Z,4.91
2023-02-11T07:16:28.606Z,5.02
2023-02-11T07:18:56.906Z,5.16
2023-02-11T07:21:25.180Z,5.29
2023-02-11T07:23:53.821Z,5.33
2023-02-11T07:26:24.521Z,5.21
2023-02-11T07:28:53.295Z,5.21
2023-02-11T07:31:25.963Z,4.89
2023-02-11T07:33:57.554Z,4.99
2023-02-11T07:36:26.279Z,4.42
2023-02-11T07:38:54.666Z,4.46
2023-02-11T07:41:23.789Z,4.08
2023-02-11T07:43:52.864Z,3.95
2023-02-11T07:46:26.541Z,3.67
2023-02-11T07:48:55.453Z,3.78
2023-02-11T07:51:26.159Z,3.89
2023-02-11T07:53:55.919Z,3.57
2023-02-11T07:56:24.497Z,3.95
2023-02-11T07:58:52.770Z,3.84
2023-02-11T08:01:25.633Z,4.08
2023-02-11T08:03:58.248Z,4.20
2023-02-11T08:06:29.357Z,3.97
2023-02-11T08:08:59.709Z,4.26
2023-02-11T08:11:29.309Z,4.42
2023-02-11T08:13:57.876Z,4.66
2023-02-11T08:16:29.120Z,4.66
2023-02-11T08:18:59.675Z,4.92
2023-02-11T08:21:28.959Z,5.10
2023-02-11T08:23:57.372Z,5.16
2023-02-11T08:26:29.155Z,5.44
2023-02-11T08:28:58.629Z,5.62
2023-02-11T08:31:29.707Z,5.62
2023-02-11T08:34:02.624Z,5.66
2023-02-11T08:36:36.544Z,5.68
2023-02-11T08:39:18.491Z,5.43
2023-02-11T08:41:49.809Z,5.70
2023-02-11T08:44:19.933Z,5.89
2023-02-11T08:46:48.530Z,5.98
2023-02-11T08:49:16.836Z,6.34
2023-02-11T08:51:45.486Z,6.52
2023-02-11T08:54:14.562Z,6.74
2023-02-11T08:56:43.068Z,6.86
2023-02-11T08:59:15.367Z,6.80
2023-02-11T09:01:44.657Z,6.70
2023-02-11T09:04:13.409Z,6.86
2023-02-11T09:06:41.906Z,6.84
2023-02-11T09:09:13.791Z,7.07
2023-02-11T09:11:43.351Z,7.34
2023-02-11T09:14:20.917Z,7.11
2023-02-11T09:16:49.418Z,6.97
2023-02-11T09:19:18.555Z,6.98
2023-02-11T09:21:47.299Z,6.94
2023-02-11T09:24:15.809Z,7.26
2023-02-11T09:26:45.192Z,7.22
2023-02-11T09:29:13.666Z,7.26
2023-02-11T09:31:41.679Z,7.09
2023-02-11T09:34:11.979Z,6.85
2023-02-11T09:36:42.991Z,6.95
2023-02-11T09:39:17.379Z,7.02
2023-02-11T09:42:11.285Z,6.95
2023-02-11T09:44:44.506Z,7.35
2023-02-11T09:47:36.329Z,6.75
2023-02-11T09:50:12.729Z,6.94
2023-02-11T09:53:01.803Z,7.02
2023-02-11T09:55:48.637Z,7.36
2023-02-11T09:58:26.820Z,7.17
2023-02-11T10:01:09.427Z,7.25
2023-02-11T10:04:00.863Z,7.17
2023-02-11T10:06:52.391Z,7.31
2023-02-11T10:09:38.183Z,6.96
2023-02-11T10:12:38.337Z,6.92
2023-02-11T10:15:37.745Z,6.98
2023-02-11T10:18:36.587Z,7.14
2023-02-11T10:21:28.831Z,6.98
2023-02-11T10:24:03.852Z,7.02
2023-02-11T10:26:33.758Z,7.04
2023-02-11T10:29:12.645Z,7.03
2023-02-11T10:31:45.390Z,6.89
2023-02-11T10:34:15.101Z,7.07
2023-02-11T10:36:45.137Z,7.23
2023-02-11T10:39:20.723Z,7.20
2023-02-11T10:41:56.862Z,7.39
2023-02-11T10:44:36.790Z,7.71
2023-02-11T10:47:21.124Z,7.65
2023-02-11T10:49:49.991Z,7.77
2023-02-11T10:52:27.377Z,7.69
2023-02-11T10:55:04.798Z,7.57
2023-02-11T10:57:37.999Z,7.73
2023-02-11T11:00:18.582Z,7.46
2023-02-11T11:02:52.840Z,7.65
2023-02-11T11:05:29.341Z,7.58
2023-02-11T11:08:00.405Z,7.25
2023-02-11T11:11:04.020Z,7.29
2023-02-11T11:13:35.785Z,7.50
2023-02-11T11:16:18.252Z,7.37
2023-02-11T11:18:48.831Z,7.52
2023-02-11T11:21:35.655Z,7.74
2023-02-11T11:24:04.593Z,7.84
2023-02-11T11:26:47.093Z,8.05
2023-02-11T11:29:19.811Z,7.88
2023-02-11T11:31:51.094Z,8.00
2023-02-11T11:34:38.489Z,7.87
2023-02-11T13:02:00.939Z,7.80
2023-02-11T13:04:43.651Z,7.56
2023-02-11T13:07:20.621Z,7.42
2023-02-11T13:11:44.945Z,7.63
2023-02-11T13:14:22.553Z,7.79
2023-02-11T13:16:51.991Z,7.71
2023-02-11T13:19:39.012Z,7.84
2023-02-11T13:22:32.996Z,7.77
2023-02-11T13:25:36.557Z,7.77
2023-02-11T13:28:37.247Z,7.68
2023-02-11T13:31:08.114Z,7.52
2023-02-11T13:33:43.678Z,7.30
2023-02-11T13:36:18.213Z,7.43
2023-02-11T13:38:55.072Z,7.43
2023-02-11T13:41:31.239Z,7.45
2023-02-11T13:44:04.053Z,7.47
2023-02-11T13:46:56.058Z,7.50
2023-02-11T13:49:26.050Z,7.43
2023-02-11T13:51:56.180Z,7.47
2023-02-11T13:54:39.479Z,7.40
2023-02-11T13:57:28.151Z,7.39
2023-02-11T14:00:02.607Z,7.36
2023-02-11T14:02:55.681Z,7.32
2023-02-11T14:05:49.092Z,7.06
2023-02-11T14:08:41.994Z,7.14
2023-02-11T14:11:29.948Z,7.10
2023-02-11T14:14:15.582Z,6.85
2023-02-11T14:17:09.492Z,6.82
2023-02-11T14:19:46.449Z,6.69
2023-02-11T14:22:24.634Z,6.92
2023-02-11T14:25:00.326Z,6.76
2023-02-11T14:27:35.076Z,6.92
2023-02-11T14:30:25.851Z,6.91
2023-02-11T14:33:10.532Z,7.01
2023-02-11T14:36:05.973Z,6.73
2023-02-11T14:39:02.825Z,6.77
2023-02-11T14:41:35.359Z,6.33
2023-02-11T14:44:21.586Z,6.47
2023-02-11T14:46:53.717Z,6.72
2023-02-11T14:49:26.087Z,6.69
2023-02-11T14:52:06.674Z,6.73
2023-02-11T14:54:36.158Z,6.72
2023-02-11T14:57:16.780Z,6.13
2023-02-11T15:00:05.961Z,6.39
2023-02-11T15:02:38.862Z,6.43
2023-02-11T15:05:26.410Z,6.33
2023-02-11T15:08:07.866Z,6.40
2023-02-11T15:10:42.981Z,6.29
2023-02-11T15:13:19.265Z,5.95
2023-02-11T15:15:48.808Z,5.99
2023-02-11T15:18:23.025Z,6.10
2023-02-11T15:20:52.671Z,6.08
2023-02-11T15:23:27.489Z,5.73
2023-02-11T15:25:58.462Z,5.58
2023-02-11T15:28:30.416Z,5.71
2023-02-11T15:31:14.134Z,5.61
2023-02-11T15:33:42.545Z,5.52
2023-02-11T15:36:13.089Z,5.57
2023-02-11T15:38:41.823Z,5.61
2023-02-11T15:41:38.824Z,5.64
2023-02-11T15:44:27.212Z,5.72
2023-02-11T15:46:55.818Z,5.69
2023-02-11T15:49:25.532Z,5.50
2023-02-11T15:51:55.698Z,5.54
2023-02-11T15:54:29.646Z,5.38
2023-02-11T15:57:05.228Z,5.18
2023-02-11T15:59:53.522Z,5.07
2023-02-11T16:02:45.467Z,5.32
2023-02-11T16:05:32.902Z,5.28
2023-02-11T16:08:12.964Z,5.42
2023-02-11T16:10:55.058Z,5.26
2023-02-11T16:13:24.715Z,5.40
2023-02-11T16:16:04.221Z,5.25
2023-02-11T16:18:40.290Z,5.22
2023-02-11T16:21:18.202Z,5.18
2023-02-11T16:23:56.193Z,5.01
2023-02-11T16:26:39.659Z,5.11
2023-02-11T16:29:10.603Z,5.11
2023-02-11T16:31:42.613Z,5.19
2023-02-11T16:34:28.861Z,5.21
2023-02-11T16:36:57.005Z,5.07
2023-02-11T16:39:25.017Z,5.32
2023-02-11T16:41:53.206Z,5.24
2023-02-11T16:44:21.319Z,5.27
2023-02-11T16:46:49.710Z,5.21
2023-02-11T16:49:25.186Z,5.16
2023-02-11T16:51:57.136Z,5.23
2023-02-11T16:54:25.279Z,5.24
2023-02-11T16:56:53.485Z,5.33
2023-02-11T16:59:21.424Z,5.30
2023-02-11T17:01:52.220Z,5.29
2023-02-11T17:04:26.323Z,5.27
2023-02-11T17:06:57.199Z,5.30
2023-02-11T17:09:30.637Z,5.22
2023-02-11T17:11:59.591Z,5.08
2023-02-11T17:14:27.668Z,5.14
2023-02-11T17:16:55.813Z,5.22
2023-02-11T17:19:24.270Z,5.25
2023-02-11T17:21:53.647Z,5.20
2023-02-11T17:24:22.446Z,5.20
2023-02-11T17:26:50.775Z,5.23
2023-02-11T17:29:22.518Z,5.22
2023-02-11T17:31:52.257Z,5.10
2023-02-11T17:34:22.508Z,5.13
2023-02-11T17:36:51.070Z,5.13
2023-02-11T17:39:21.342Z,5.20
2023-02-11T17:41:49.682Z,5.15
2023-02-11T17:44:17.813Z,5.15
2023-02-11T17:46:46.142Z,5.11
2023-02-11T17:49:13.904Z,5.15
2023-02-11T17:51:42.327Z,5.12
2023-02-11T17:54:17.192Z,5.19
2023-02-11T17:56:46.273Z,5.20
2023-02-11T17:59:14.700Z,5.08
2023-02-11T18:01:45.341Z,5.21
2023-02-11T18:04:15.619Z,5.20
2023-02-11T18:06:44.370Z,5.20
2023-02-11T18:09:12.415Z,5.18
2023-02-11T18:11:41.830Z,5.17
2023-02-11T18:14:11.894Z,5.16
2023-02-11T18:16:43.539Z,5.12
2023-02-11T18:19:12.510Z,5.29
2023-02-11T18:21:40.934Z,5.08
2023-02-11T18:24:09.341Z,5.16
2023-02-11T18:26:38.013Z,5.10
2023-02-11T18:29:07.244Z,5.20
2023-02-11T18:31:36.915Z,5.32
2023-02-11T18:34:07.789Z,5.31
2023-02-11T18:36:36.744Z,5.34
2023-02-11T18:39:06.018Z,5.27
2023-02-11T18:41:35.077Z,5.35
2023-02-11T18:44:04.898Z,5.40
2023-02-11T18:46:33.602Z,5.47
2023-02-11T18:49:01.786Z,5.51
2023-02-11T18:51:32.689Z,5.54
2023-02-11T18:54:01.742Z,5.55
2023-02-11T18:56:30.172Z,5.57
2023-02-11T18:59:01.501Z,5.27
2023-02-11T19:01:31.507Z,5.35
2023-02-11T19:04:03.232Z,5.48
2023-02-11T19:06:35.019Z,5.52
2023-02-11T19:09:10.641Z,5.59
2023-02-11T19:11:54.591Z,5.58
2023-02-11T19:14:31.987Z,5.41
2023-02-11T19:17:04.716Z,5.56
2023-02-11T19:19:36.077Z,5.64
2023-02-11T19:22:09.994Z,5.64
2023-02-11T19:24:39.492Z,5.57
2023-02-11T19:27:08.023Z,5.53
2023-02-11T19:29:36.137Z,5.69
2023-02-11T19:32:06.490Z,5.64
2023-02-11T19:34:41.436Z,5.65
2023-02-11T19:37:13.024Z,5.56
2023-02-11T19:39:42.802Z,5.61
2023-02-11T19:42:12.469Z,5.55
2023-02-11T19:44:40.556Z,5.68
2023-02-11T19:47:10.580Z,5.58
2023-02-11T19:49:39.024Z,5.64
2023-02-11T19:52:07.203Z,5.52
2023-02-11T19:54:35.264Z,5.42
2023-02-11T19:57:03.937Z,5.50
2023-02-11T19:59:32.357Z,5.69
2023-02-11T20:02:01.739Z,5.23
2023-02-11T20:04:32.402Z,5.19
2023-02-11T20:07:00.920Z,5.43
2023-02-11T20:09:31.354Z,5.32
2023-02-11T20:12:00.665Z,5.48
2023-02-11T20:14:28.495Z,5.40
2023-02-11T20:16:56.798Z,5.46
2023-02-11T20:19:26.166Z,5.46
2023-02-11T20:21:57.035Z,5.53
2023-02-11T20:24:27.112Z,5.53
2023-02-11T20:26:57.056Z,5.53
2023-02-11T20:29:32.293Z,5.50
2023-02-11T20:32:03.276Z,5.47
2023-02-11T20:34:31.228Z,5.56
2023-02-11T20:36:59.746Z,5.54
2023-02-11T20:39:27.928Z,5.64
2023-02-11T20:41:57.789Z,5.44
2023-02-11T20:44:25.708Z,5.29
2023-02-11T20:46:56.980Z,5.33
2023-02-11T20:49:25.371Z,5.23
2023-02-11T20:51:54.447Z,5.40
2023-02-11T20:54:24.933Z,5.36
2023-02-11T20:56:54.152Z,5.31
2023-02-11T20:59:22.072Z,5.26
2023-02-11T21:01:54.356Z,5.30
2023-02-11T21:04:25.554Z,5.41
2023-02-11T21:06:57.274Z,5.18
2023-02-11T21:09:28.347Z,5.12
2023-02-11T21:11:57.775Z,5.40
2023-02-11T21:14:27.045Z,5.53
2023-02-11T21:16:56.504Z,5.63
2023-02-11T21:19:24.733Z,5.65
2023-02-11T21:21:53.379Z,5.66
2023-02-11T21:24:21.370Z,5.61
2023-02-11T21:26:49.732Z,5.38
2023-02-11T21:29:17.549Z,5.41
2023-02-11T21:31:45.793Z,5.27
2023-02-11T21:34:14.566Z,5.29
2023-02-11T21:36:43.026Z,5.31
2023-02-11T21:39:11.052Z,5.34
2023-02-11T21:41:39.576Z,5.13
2023-02-11T21:44:07.404Z,5.29
2023-02-11T21:46:35.913Z,5.29
2023-02-11T21:49:03.860Z,5.38
2023-02-11T21:51:32.225Z,5.46
2023-02-11T21:54:01.907Z,5.35
2023-02-11T21:56:32.240Z,5.54
2023-02-11T21:59:00.858Z,5.66
2023-02-11T22:01:32.045Z,5.50
2023-02-11T22:04:00.656Z,5.46
2023-02-11T22:06:31.394Z,5.51
2023-02-11T22:09:03.205Z,5.49
2023-02-11T22:11:31.678Z,5.43
2023-02-11T22:13:59.963Z,5.48
2023-02-11T22:16:28.963Z,5.58
2023-02-11T22:19:02.819Z,5.55
2023-02-11T22:21:31.166Z,5.64
2023-02-11T22:23:59.060Z,5.55
2023-02-11T22:26:28.219Z,5.67
2023-02-11T22:28:56.856Z,5.62
2023-02-11T22:31:30.111Z,5.51
2023-02-11T22:33:59.651Z,5.48
2023-02-11T22:36:33.452Z,5.42
2023-02-11T22:39:03.203Z,5.41
2023-02-11T22:41:32.055Z,5.46
2023-02-11T22:43:59.850Z,5.38
2023-02-11T22:46:28.638Z,5.45
2023-02-11T22:48:57.038Z,5.52
2023-02-11T22:51:27.288Z,5.51
2023-02-11T22:54:00.485Z,5.50
2023-02-11T22:56:30.531Z,5.60
2023-02-11T22:59:04.142Z,5.42
2023-02-11T23:01:34.204Z,5.49
2023-02-11T23:04:04.347Z,5.40
2023-02-11T23:06:33.027Z,5.40
2023-02-11T23:09:02.996Z,5.35
2023-02-11T23:11:32.677Z,5.35
2023-02-11T23:14:02.634Z,5.23
2023-02-11T23:16:33.529Z,5.36
2023-02-11T23:19:04.627Z,5.16
2023-02-11T23:21:34.616Z,5.22
2023-02-11T23:24:06.674Z,5.13
2023-02-11T23:26:35.687Z,5.02
2023-02-11T23:29:03.968Z,5.10
2023-02-11T23:31:34.481Z,5.10
2023-02-11T23:34:02.490Z,5.17
2023-02-11T23:36:31.108Z,5.06
2023-02-11T23:38:58.944Z,4.99
2023-02-11T23:41:27.513Z,5.02
2023-02-11T23:43:57.535Z,5.10
2023-02-11T23:46:27.151Z,5.03
2023-02-11T23:48:56.307Z,5.01
2023-02-11T23:51:24.783Z,5.01
2023-02-11T23:53:55.022Z,5.02
2023-02-11T23:56:26.208Z,5.12
2023-02-11T23:58:55.903Z,5.18
